sensor_id;sensor_type;location;lat;lon;timestamp;temperature;humidity
37242;DHT22;23135;51.078;12.108;2023-08-07T00:00:26;14.10;99.90
37242;DHT22;23135;51.078;12.108;2023-08-07T00:02:52;14.00;99.90
37242;DHT22;23135;51.078;12.108;2023-08-07T00:05:17;14.00;99.90
37242;DHT22;23135;51.078;12.108;2023-08-07T00:07:43;14.10;99.90
37242;DHT22;23135;51.078;12.108;2023-08-07T00:10:09;14.00;99.90
37242;DHT22;23135;51.078;12.108;2023-08-07T00:12:35;14.00;99.90
37242;DHT22;23135;51.078;12.108;2023-08-07T00:15:02;14.00;99.90
37242;DHT22;23135;51.078;12.108;2023-08-07T00:17:28;14.00;99.90
37242;DHT22;23135;51.078;12.108;2023-08-07T00:19:53;14.00;99.90
37242;DHT22;23135;51.078;12.108;2023-08-07T00:22:19;14.00;99.90
37242;DHT22;23135;51.078;12.108;2023-08-07T00:24:45;14.00;99.90
37242;DHT22;23135;51.078;12.108;2023-08-07T00:27:10;14.00;99.90
37242;DHT22;23135;51.078;12.108;2023-08-07T00:29:37;14.00;99.90
37242;DHT22;23135;51.078;12.108;2023-08-07T00:32:04;13.90;99.90
37242;DHT22;23135;51.078;12.108;2023-08-07T00:34:29;13.90;99.90
37242;DHT22;23135;51.078;12.108;2023-08-07T00:36:55;13.90;99.90
37242;DHT22;23135;51.078;12.108;2023-08-07T00:39:21;13.90;99.90
37242;DHT22;23135;51.078;12.108;2023-08-07T00:41:46;13.90;99.90
37242;DHT22;23135;51.078;12.108;2023-08-07T00:44:12;13.80;99.90
37242;DHT22;23135;51.078;12.108;2023-08-07T00:46:38;13.80;99.90
37242;DHT22;23135;51.078;12.108;2023-08-07T00:49:08;13.80;99.90
37242;DHT22;23135;51.078;12.108;2023-08-07T00:51:35;13.80;99.90
37242;DHT22;23135;51.078;12.108;2023-08-07T00:54:03;13.80;99.90
37242;DHT22;23135;51.078;12.108;2023-08-07T00:56:30;13.80;99.90
37242;DHT22;23135;51.078;12.108;2023-08-07T00:58:58;13.80;99.90
37242;DHT22;23135;51.078;12.108;2023-08-07T01:01:24;13.80;99.90
37242;DHT22;23135;51.078;12.108;2023-08-07T01:03:50;13.80;99.90
37242;DHT22;23135;51.078;12.108;2023-08-07T01:06:15;13.80;99.90
37242;DHT22;23135;51.078;12.108;2023-08-07T01:08:41;13.80;99.90
37242;DHT22;23135;51.078;12.108;2023-08-07T01:11:24;13.80;99.90
37242;DHT22;23135;51.078;12.108;2023-08-07T01:17:05;13.70;99.90
37242;DHT22;23135;51.078;12.108;2023-08-07T01:19:31;13.70;99.90
37242;DHT22;23135;51.078;12.108;2023-08-07T01:22:16;13.70;99.90
37242;DHT22;23135;51.078;12.108;2023-08-07T01:24:43;13.70;99.90
37242;DHT22;23135;51.078;12.108;2023-08-07T01:35:23;13.80;99.90
37242;DHT22;23135;51.078;12.108;2023-08-07T01:37:54;13.80;99.90
37242;DHT22;23135;51.078;12.108;2023-08-07T01:40:20;13.70;99.90
37242;DHT22;23135;51.078;12.108;2023-08-07T01:42:47;13.80;99.90
37242;DHT22;23135;51.078;12.108;2023-08-07T01:45:13;13.80;99.90
37242;DHT22;23135;51.078;12.108;2023-08-07T01:47:39;13.80;99.90
37242;DHT22;23135;51.078;12.108;2023-08-07T01:50:05;13.80;99.90
37242;DHT22;23135;51.078;12.108;2023-08-07T01:52:31;13.80;99.90
37242;DHT22;23135;51.078;12.108;2023-08-07T01:54:57;13.80;99.90
37242;DHT22;23135;51.078;12.108;2023-08-07T01:57:22;13.80;99.90
37242;DHT22;23135;51.078;12.108;2023-08-07T01:59:48;13.80;99.90
37242;DHT22;23135;51.078;12.108;2023-08-07T02:02:13;13.80;99.90
37242;DHT22;23135;51.078;12.108;2023-08-07T02:04:39;13.80;99.90
37242;DHT22;23135;51.078;12.108;2023-08-07T02:07:05;13.80;99.90
37242;DHT22;23135;51.078;12.108;2023-08-07T02:09:30;13.80;99.90
37242;DHT22;23135;51.078;12.108;2023-08-07T02:11:56;13.80;99.90
37242;DHT22;23135;51.078;12.108;2023-08-07T02:14:21;13.80;99.90
37242;DHT22;23135;51.078;12.108;2023-08-07T02:16:47;13.80;99.90
37242;DHT22;23135;51.078;12.108;2023-08-07T02:19:12;13.80;99.90
37242;DHT22;23135;51.078;12.108;2023-08-07T02:21:38;13.80;99.90
37242;DHT22;23135;51.078;12.108;2023-08-07T02:24:04;13.80;99.90
37242;DHT22;23135;51.078;12.108;2023-08-07T02:26:29;13.80;99.90
37242;DHT22;23135;51.078;12.108;2023-08-07T02:28:55;13.80;99.90
37242;DHT22;23135;51.078;12.108;2023-08-07T02:31:21;13.90;99.90
37242;DHT22;23135;51.078;12.108;2023-08-07T02:33:46;13.80;99.90
37242;DHT22;23135;51.078;12.108;2023-08-07T02:36:12;13.80;99.90
37242;DHT22;23135;51.078;12.108;2023-08-07T02:38:37;13.80;99.90
37242;DHT22;23135;51.078;12.108;2023-08-07T02:41:03;13.90;99.90
37242;DHT22;23135;51.078;12.108;2023-08-07T02:43:29;13.90;99.90
37242;DHT22;23135;51.078;12.108;2023-08-07T02:45:54;13.90;99.90
37242;DHT22;23135;51.078;12.108;2023-08-07T02:48:20;13.90;99.90
37242;DHT22;23135;51.078;12.108;2023-08-07T02:50:46;13.80;99.90
37242;DHT22;23135;51.078;12.108;2023-08-07T02:53:11;13.80;99.90
37242;DHT22;23135;51.078;12.108;2023-08-07T02:55:37;13.80;99.90
37242;DHT22;23135;51.078;12.108;2023-08-07T02:58:03;13.90;99.90
37242;DHT22;23135;51.078;12.108;2023-08-07T03:00:28;13.90;99.90
37242;DHT22;23135;51.078;12.108;2023-08-07T03:02:54;13.90;99.90
37242;DHT22;23135;51.078;12.108;2023-08-07T03:05:19;13.90;99.90
37242;DHT22;23135;51.078;12.108;2023-08-07T03:07:45;13.90;99.90
37242;DHT22;23135;51.078;12.108;2023-08-07T03:10:11;13.90;99.90
37242;DHT22;23135;51.078;12.108;2023-08-07T03:12:36;13.90;99.90
37242;DHT22;23135;51.078;12.108;2023-08-07T03:15:04;13.90;99.90
37242;DHT22;23135;51.078;12.108;2023-08-07T03:17:30;13.90;99.90
37242;DHT22;23135;51.078;12.108;2023-08-07T03:19:55;13.90;99.90
37242;DHT22;23135;51.078;12.108;2023-08-07T03:22:21;13.90;99.90
37242;DHT22;23135;51.078;12.108;2023-08-07T03:24:47;13.90;99.90
37242;DHT22;23135;51.078;12.108;2023-08-07T03:27:13;13.90;99.90
37242;DHT22;23135;51.078;12.108;2023-08-07T03:29:39;13.90;99.90
37242;DHT22;23135;51.078;12.108;2023-08-07T03:32:05;13.90;99.90
37242;DHT22;23135;51.078;12.108;2023-08-07T03:34:30;13.90;99.90
37242;DHT22;23135;51.078;12.108;2023-08-07T03:36:56;13.90;99.90
37242;DHT22;23135;51.078;12.108;2023-08-07T03:39:21;13.80;99.90
37242;DHT22;23135;51.078;12.108;2023-08-07T03:41:47;13.80;99.90
37242;DHT22;23135;51.078;12.108;2023-08-07T03:44:12;13.80;99.90
37242;DHT22;23135;51.078;12.108;2023-08-07T03:46:38;13.80;99.90
37242;DHT22;23135;51.078;12.108;2023-08-07T03:49:04;13.80;99.90
37242;DHT22;23135;51.078;12.108;2023-08-07T03:51:29;13.80;99.90
37242;DHT22;23135;51.078;12.108;2023-08-07T03:53:56;13.80;99.90
37242;DHT22;23135;51.078;12.108;2023-08-07T03:56:21;13.80;99.90
37242;DHT22;23135;51.078;12.108;2023-08-07T03:58:47;13.70;99.90
37242;DHT22;23135;51.078;12.108;2023-08-07T04:01:14;13.70;99.90
37242;DHT22;23135;51.078;12.108;2023-08-07T04:03:40;13.70;99.90
37242;DHT22;23135;51.078;12.108;2023-08-07T04:06:06;13.70;99.90
37242;DHT22;23135;51.078;12.108;2023-08-07T04:08:31;13.70;99.90
37242;DHT22;23135;51.078;12.108;2023-08-07T04:10:58;13.70;99.90
37242;DHT22;23135;51.078;12.108;2023-08-07T04:13:24;13.70;99.90
37242;DHT22;23135;51.078;12.108;2023-08-07T04:15:50;13.70;99.90
37242;DHT22;23135;51.078;12.108;2023-08-07T04:18:16;13.60;99.90
37242;DHT22;23135;51.078;12.108;2023-08-07T04:20:42;13.60;99.90
37242;DHT22;23135;51.078;12.108;2023-08-07T04:23:07;13.70;99.90
37242;DHT22;23135;51.078;12.108;2023-08-07T04:25:34;13.60;99.90
37242;DHT22;23135;51.078;12.108;2023-08-07T04:27:59;13.60;99.90
37242;DHT22;23135;51.078;12.108;2023-08-07T04:30:25;13.60;99.90
37242;DHT22;23135;51.078;12.108;2023-08-07T04:32:50;13.60;99.90
37242;DHT22;23135;51.078;12.108;2023-08-07T04:35:16;13.60;99.90
37242;DHT22;23135;51.078;12.108;2023-08-07T04:37:42;13.60;99.90
37242;DHT22;23135;51.078;12.108;2023-08-07T04:40:08;13.60;99.90
37242;DHT22;23135;51.078;12.108;2023-08-07T04:42:34;13.60;99.90
37242;DHT22;23135;51.078;12.108;2023-08-07T04:44:59;13.60;99.90
37242;DHT22;23135;51.078;12.108;2023-08-07T04:47:27;13.60;99.90
37242;DHT22;23135;51.078;12.108;2023-08-07T04:49:53;13.60;99.90
37242;DHT22;23135;51.078;12.108;2023-08-07T04:52:18;13.60;99.90
37242;DHT22;23135;51.078;12.108;2023-08-07T04:54:44;13.60;99.90
37242;DHT22;23135;51.078;12.108;2023-08-07T04:57:10;13.60;99.90
37242;DHT22;23135;51.078;12.108;2023-08-07T04:59:35;13.50;99.90
37242;DHT22;23135;51.078;12.108;2023-08-07T05:02:01;13.50;99.90
37242;DHT22;23135;51.078;12.108;2023-08-07T05:04:27;13.40;99.90
37242;DHT22;23135;51.078;12.108;2023-08-07T05:06:52;13.40;99.90
37242;DHT22;23135;51.078;12.108;2023-08-07T05:09:18;13.40;99.90
37242;DHT22;23135;51.078;12.108;2023-08-07T05:11:43;13.40;99.90
37242;DHT22;23135;51.078;12.108;2023-08-07T05:14:09;13.50;99.90
37242;DHT22;23135;51.078;12.108;2023-08-07T05:16:34;13.40;99.90
37242;DHT22;23135;51.078;12.108;2023-08-07T05:19:00;13.50;99.90
37242;DHT22;23135;51.078;12.108;2023-08-07T05:21:26;13.50;99.90
37242;DHT22;23135;51.078;12.108;2023-08-07T05:23:51;13.50;99.90
37242;DHT22;23135;51.078;12.108;2023-08-07T05:26:21;13.60;99.90
37242;DHT22;23135;51.078;12.108;2023-08-07T05:28:46;13.60;99.90
37242;DHT22;23135;51.078;12.108;2023-08-07T05:31:12;13.60;99.90
37242;DHT22;23135;51.078;12.108;2023-08-07T05:33:38;13.60;99.90
37242;DHT22;23135;51.078;12.108;2023-08-07T05:36:03;13.60;99.90
37242;DHT22;23135;51.078;12.108;2023-08-07T05:38:31;13.60;99.90
37242;DHT22;23135;51.078;12.108;2023-08-07T05:40:57;13.70;99.90
37242;DHT22;23135;51.078;12.108;2023-08-07T05:43:23;13.70;99.90
37242;DHT22;23135;51.078;12.108;2023-08-07T05:45:49;13.60;99.90
37242;DHT22;23135;51.078;12.108;2023-08-07T05:48:15;13.60;99.90
37242;DHT22;23135;51.078;12.108;2023-08-07T05:50:42;13.60;99.90
37242;DHT22;23135;51.078;12.108;2023-08-07T05:53:08;13.60;99.90
37242;DHT22;23135;51.078;12.108;2023-08-07T05:55:34;13.60;99.90
37242;DHT22;23135;51.078;12.108;2023-08-07T05:57:59;13.70;99.90
37242;DHT22;23135;51.078;12.108;2023-08-07T06:00:25;13.70;99.90
37242;DHT22;23135;51.078;12.108;2023-08-07T06:02:51;13.80;99.90
37242;DHT22;23135;51.078;12.108;2023-08-07T06:05:16;13.80;99.90
37242;DHT22;23135;51.078;12.108;2023-08-07T06:07:42;13.80;99.90
37242;DHT22;23135;51.078;12.108;2023-08-07T06:10:08;13.90;99.90
37242;DHT22;23135;51.078;12.108;2023-08-07T06:12:34;14.00;99.90
37242;DHT22;23135;51.078;12.108;2023-08-07T06:14:59;14.10;99.90
37242;DHT22;23135;51.078;12.108;2023-08-07T06:17:25;14.20;99.90
37242;DHT22;23135;51.078;12.108;2023-08-07T06:19:52;14.20;99.90
37242;DHT22;23135;51.078;12.108;2023-08-07T06:22:17;14.30;99.90
37242;DHT22;23135;51.078;12.108;2023-08-07T06:24:43;14.30;99.90
37242;DHT22;23135;51.078;12.108;2023-08-07T06:27:08;14.30;99.90
37242;DHT22;23135;51.078;12.108;2023-08-07T06:29:34;14.40;99.90
37242;DHT22;23135;51.078;12.108;2023-08-07T06:32:00;14.40;99.90
37242;DHT22;23135;51.078;12.108;2023-08-07T06:34:25;14.50;99.90
37242;DHT22;23135;51.078;12.108;2023-08-07T06:36:51;14.50;99.90
37242;DHT22;23135;51.078;12.108;2023-08-07T06:39:16;14.60;99.90
37242;DHT22;23135;51.078;12.108;2023-08-07T06:41:42;14.70;99.90
37242;DHT22;23135;51.078;12.108;2023-08-07T06:44:07;14.90;99.90
37242;DHT22;23135;51.078;12.108;2023-08-07T06:46:33;15.10;99.90
37242;DHT22;23135;51.078;12.108;2023-08-07T06:48:59;15.40;99.90
37242;DHT22;23135;51.078;12.108;2023-08-07T06:51:24;15.40;99.90
37242;DHT22;23135;51.078;12.108;2023-08-07T06:53:50;15.30;99.90
37242;DHT22;23135;51.078;12.108;2023-08-07T06:56:15;15.20;99.90
37242;DHT22;23135;51.078;12.108;2023-08-07T06:58:41;15.20;99.90
37242;DHT22;23135;51.078;12.108;2023-08-07T07:01:06;15.10;99.90
37242;DHT22;23135;51.078;12.108;2023-08-07T07:03:32;15.20;99.90
37242;DHT22;23135;51.078;12.108;2023-08-07T07:05:58;15.20;99.90
37242;DHT22;23135;51.078;12.108;2023-08-07T07:08:23;15.20;99.90
37242;DHT22;23135;51.078;12.108;2023-08-07T07:10:49;15.20;99.90
37242;DHT22;23135;51.078;12.108;2023-08-07T07:13:14;15.20;99.90
37242;DHT22;23135;51.078;12.108;2023-08-07T07:15:40;15.10;99.90
37242;DHT22;23135;51.078;12.108;2023-08-07T07:18:05;15.10;99.90
37242;DHT22;23135;51.078;12.108;2023-08-07T07:20:31;15.20;99.90
37242;DHT22;23135;51.078;12.108;2023-08-07T07:22:57;15.20;99.90
37242;DHT22;23135;51.078;12.108;2023-08-07T07:25:22;15.10;99.90
37242;DHT22;23135;51.078;12.108;2023-08-07T07:27:48;15.10;99.90
37242;DHT22;23135;51.078;12.108;2023-08-07T07:30:13;15.10;99.90
37242;DHT22;23135;51.078;12.108;2023-08-07T07:32:39;15.20;99.90
37242;DHT22;23135;51.078;12.108;2023-08-07T07:35:05;15.20;99.90
37242;DHT22;23135;51.078;12.108;2023-08-07T07:37:31;15.20;99.90
37242;DHT22;23135;51.078;12.108;2023-08-07T07:39:57;15.10;99.90
37242;DHT22;23135;51.078;12.108;2023-08-07T07:42:23;15.20;99.90
37242;DHT22;23135;51.078;12.108;2023-08-07T07:44:48;15.10;99.90
37242;DHT22;23135;51.078;12.108;2023-08-07T07:47:14;15.10;99.90
37242;DHT22;23135;51.078;12.108;2023-08-07T07:49:46;15.10;99.90
37242;DHT22;23135;51.078;12.108;2023-08-07T07:52:15;15.00;99.90
37242;DHT22;23135;51.078;12.108;2023-08-07T07:54:41;15.00;99.90
37242;DHT22;23135;51.078;12.108;2023-08-07T07:57:06;15.10;99.90
37242;DHT22;23135;51.078;12.108;2023-08-07T07:59:32;15.10;99.90
37242;DHT22;23135;51.078;12.108;2023-08-07T08:01:58;15.10;99.90
37242;DHT22;23135;51.078;12.108;2023-08-07T08:04:23;15.50;99.90
37242;DHT22;23135;51.078;12.108;2023-08-07T08:06:49;15.80;99.90
37242;DHT22;23135;51.078;12.108;2023-08-07T08:09:15;15.90;99.90
37242;DHT22;23135;51.078;12.108;2023-08-07T08:11:41;15.90;99.90
37242;DHT22;23135;51.078;12.108;2023-08-07T08:14:06;15.90;99.90
37242;DHT22;23135;51.078;12.108;2023-08-07T08:16:32;16.00;99.90
37242;DHT22;23135;51.078;12.108;2023-08-07T08:18:57;16.00;99.90
37242;DHT22;23135;51.078;12.108;2023-08-07T08:21:23;15.90;99.90
37242;DHT22;23135;51.078;12.108;2023-08-07T08:23:49;16.00;99.90
37242;DHT22;23135;51.078;12.108;2023-08-07T08:26:15;15.90;99.90
37242;DHT22;23135;51.078;12.108;2023-08-07T08:28:40;15.90;99.90
37242;DHT22;23135;51.078;12.108;2023-08-07T08:31:06;15.80;99.90
37242;DHT22;23135;51.078;12.108;2023-08-07T08:33:31;15.80;99.90
37242;DHT22;23135;51.078;12.108;2023-08-07T08:35:57;16.00;99.90
37242;DHT22;23135;51.078;12.108;2023-08-07T08:38:23;16.00;99.90
37242;DHT22;23135;51.078;12.108;2023-08-07T08:40:51;16.00;99.90
37242;DHT22;23135;51.078;12.108;2023-08-07T08:43:17;16.00;99.90
37242;DHT22;23135;51.078;12.108;2023-08-07T08:45:43;16.00;99.90
37242;DHT22;23135;51.078;12.108;2023-08-07T08:48:12;16.20;99.90
37242;DHT22;23135;51.078;12.108;2023-08-07T08:50:43;16.40;99.90
37242;DHT22;23135;51.078;12.108;2023-08-07T08:53:09;16.40;99.90
37242;DHT22;23135;51.078;12.108;2023-08-07T08:55:35;16.30;99.90
37242;DHT22;23135;51.078;12.108;2023-08-07T08:58:01;16.10;99.90
37242;DHT22;23135;51.078;12.108;2023-08-07T09:00:28;15.90;99.90
37242;DHT22;23135;51.078;12.108;2023-08-07T09:02:55;15.70;99.90
37242;DHT22;23135;51.078;12.108;2023-08-07T09:05:21;15.70;99.90
37242;DHT22;23135;51.078;12.108;2023-08-07T09:07:48;15.80;99.90
37242;DHT22;23135;51.078;12.108;2023-08-07T09:10:14;16.00;99.90
37242;DHT22;23135;51.078;12.108;2023-08-07T09:12:45;16.10;99.90
37242;DHT22;23135;51.078;12.108;2023-08-07T09:15:14;16.20;99.90
37242;DHT22;23135;51.078;12.108;2023-08-07T09:17:42;16.20;99.90
37242;DHT22;23135;51.078;12.108;2023-08-07T09:20:09;16.20;99.90
37242;DHT22;23135;51.078;12.108;2023-08-07T09:22:42;16.30;99.90
37242;DHT22;23135;51.078;12.108;2023-08-07T09:25:08;16.40;99.90
37242;DHT22;23135;51.078;12.108;2023-08-07T09:27:38;16.50;99.90
37242;DHT22;23135;51.078;12.108;2023-08-07T09:30:08;16.50;99.90
37242;DHT22;23135;51.078;12.108;2023-08-07T09:32:35;16.50;99.90
37242;DHT22;23135;51.078;12.108;2023-08-07T09:35:03;16.50;99.90
37242;DHT22;23135;51.078;12.108;2023-08-07T09:37:30;16.50;99.90
37242;DHT22;23135;51.078;12.108;2023-08-07T09:39:55;16.60;99.90
37242;DHT22;23135;51.078;12.108;2023-08-07T09:42:21;16.70;99.90
37242;DHT22;23135;51.078;12.108;2023-08-07T09:44:46;16.80;99.90
37242;DHT22;23135;51.078;12.108;2023-08-07T09:47:16;16.60;99.90
37242;DHT22;23135;51.078;12.108;2023-08-07T09:49:42;16.40;99.90
37242;DHT22;23135;51.078;12.108;2023-08-07T09:52:09;15.90;99.90
37242;DHT22;23135;51.078;12.108;2023-08-07T09:54:36;15.80;99.90
37242;DHT22;23135;51.078;12.108;2023-08-07T09:57:02;15.80;99.90
37242;DHT22;23135;51.078;12.108;2023-08-07T09:59:29;15.80;99.90
37242;DHT22;23135;51.078;12.108;2023-08-07T10:01:55;15.90;99.90
37242;DHT22;23135;51.078;12.108;2023-08-07T10:04:25;16.00;99.90
37242;DHT22;23135;51.078;12.108;2023-08-07T10:06:51;16.20;99.90
37242;DHT22;23135;51.078;12.108;2023-08-07T10:09:18;16.30;99.90
37242;DHT22;23135;51.078;12.108;2023-08-07T10:11:44;16.40;99.90
37242;DHT22;23135;51.078;12.108;2023-08-07T10:14:11;16.70;99.90
37242;DHT22;23135;51.078;12.108;2023-08-07T10:16:38;16.90;99.90
37242;DHT22;23135;51.078;12.108;2023-08-07T10:19:06;17.00;99.90
37242;DHT22;23135;51.078;12.108;2023-08-07T10:21:38;17.30;99.90
37242;DHT22;23135;51.078;12.108;2023-08-07T10:24:04;17.70;99.90
37242;DHT22;23135;51.078;12.108;2023-08-07T10:26:32;17.60;99.90
37242;DHT22;23135;51.078;12.108;2023-08-07T10:29:01;17.10;99.90
37242;DHT22;23135;51.078;12.108;2023-08-07T10:31:29;16.80;99.90
37242;DHT22;23135;51.078;12.108;2023-08-07T10:33:55;16.80;99.90
37242;DHT22;23135;51.078;12.108;2023-08-07T10:36:21;16.90;99.90
37242;DHT22;23135;51.078;12.108;2023-08-07T10:38:50;16.90;99.90
37242;DHT22;23135;51.078;12.108;2023-08-07T10:41:18;17.00;99.90
37242;DHT22;23135;51.078;12.108;2023-08-07T10:43:45;17.20;99.90
37242;DHT22;23135;51.078;12.108;2023-08-07T10:46:15;17.60;99.90
37242;DHT22;23135;51.078;12.108;2023-08-07T10:48:42;17.80;99.90
37242;DHT22;23135;51.078;12.108;2023-08-07T10:51:12;17.90;99.90
37242;DHT22;23135;51.078;12.108;2023-08-07T10:53:43;17.90;99.90
37242;DHT22;23135;51.078;12.108;2023-08-07T10:56:31;18.00;99.90
37242;DHT22;23135;51.078;12.108;2023-08-07T10:58:57;18.20;99.90
37242;DHT22;23135;51.078;12.108;2023-08-07T11:03:56;18.10;99.90
37242;DHT22;23135;51.078;12.108;2023-08-07T11:06:30;17.90;99.90
37242;DHT22;23135;51.078;12.108;2023-08-07T11:09:00;17.90;99.90
37242;DHT22;23135;51.078;12.108;2023-08-07T11:11:29;17.90;99.90
37242;DHT22;23135;51.078;12.108;2023-08-07T11:13:55;17.80;99.90
37242;DHT22;23135;51.078;12.108;2023-08-07T11:16:21;18.00;99.90
37242;DHT22;23135;51.078;12.108;2023-08-07T11:18:48;18.00;99.90
37242;DHT22;23135;51.078;12.108;2023-08-07T11:21:14;18.10;99.90
37242;DHT22;23135;51.078;12.108;2023-08-07T11:23:41;18.20;99.90
37242;DHT22;23135;51.078;12.108;2023-08-07T11:26:09;18.10;99.90
37242;DHT22;23135;51.078;12.108;2023-08-07T11:28:35;18.30;99.90
37242;DHT22;23135;51.078;12.108;2023-08-07T11:31:01;18.70;99.90
37242;DHT22;23135;51.078;12.108;2023-08-07T11:33:27;18.90;99.90
37242;DHT22;23135;51.078;12.108;2023-08-07T11:35:54;18.90;99.90
37242;DHT22;23135;51.078;12.108;2023-08-07T11:38:49;19.20;99.90
37242;DHT22;23135;51.078;12.108;2023-08-07T11:41:17;18.90;99.90
37242;DHT22;23135;51.078;12.108;2023-08-07T11:43:43;19.10;99.90
37242;DHT22;23135;51.078;12.108;2023-08-07T11:46:11;18.80;99.90
37242;DHT22;23135;51.078;12.108;2023-08-07T11:48:38;18.50;99.90
37242;DHT22;23135;51.078;12.108;2023-08-07T11:51:05;18.20;99.90
37242;DHT22;23135;51.078;12.108;2023-08-07T11:53:38;18.00;99.90
37242;DHT22;23135;51.078;12.108;2023-08-07T11:56:10;17.80;99.90
37242;DHT22;23135;51.078;12.108;2023-08-07T11:58:40;17.70;99.90
37242;DHT22;23135;51.078;12.108;2023-08-07T12:01:09;17.90;99.90
37242;DHT22;23135;51.078;12.108;2023-08-07T12:03:36;18.40;99.90
37242;DHT22;23135;51.078;12.108;2023-08-07T12:06:05;18.90;99.90
37242;DHT22;23135;51.078;12.108;2023-08-07T12:08:37;19.70;99.90
37242;DHT22;23135;51.078;12.108;2023-08-07T12:11:05;20.10;99.90
37242;DHT22;23135;51.078;12.108;2023-08-07T12:13:31;19.50;99.90
37242;DHT22;23135;51.078;12.108;2023-08-07T12:16:00;19.20;99.90
37242;DHT22;23135;51.078;12.108;2023-08-07T12:18:27;19.00;99.90
37242;DHT22;23135;51.078;12.108;2023-08-07T12:21:02;18.80;99.90
37242;DHT22;23135;51.078;12.108;2023-08-07T12:23:32;18.70;99.90
37242;DHT22;23135;51.078;12.108;2023-08-07T12:25:58;18.50;99.90
37242;DHT22;23135;51.078;12.108;2023-08-07T12:28:24;18.60;99.90
37242;DHT22;23135;51.078;12.108;2023-08-07T12:30:50;18.50;99.90
37242;DHT22;23135;51.078;12.108;2023-08-07T12:33:17;18.30;99.90
37242;DHT22;23135;51.078;12.108;2023-08-07T12:35:42;18.50;99.90
37242;DHT22;23135;51.078;12.108;2023-08-07T12:38:09;18.40;99.90
37242;DHT22;23135;51.078;12.108;2023-08-07T12:40:35;18.50;99.90
37242;DHT22;23135;51.078;12.108;2023-08-07T12:43:04;18.50;99.90
37242;DHT22;23135;51.078;12.108;2023-08-07T12:45:30;18.30;99.90
37242;DHT22;23135;51.078;12.108;2023-08-07T12:47:56;18.00;99.90
37242;DHT22;23135;51.078;12.108;2023-08-07T12:50:21;17.90;99.90
37242;DHT22;23135;51.078;12.108;2023-08-07T12:52:47;17.90;99.90
37242;DHT22;23135;51.078;12.108;2023-08-07T12:55:12;18.20;99.90
37242;DHT22;23135;51.078;12.108;2023-08-07T12:57:42;18.40;99.90
37242;DHT22;23135;51.078;12.108;2023-08-07T13:00:09;18.50;99.90
37242;DHT22;23135;51.078;12.108;2023-08-07T13:02:41;18.80;99.90
37242;DHT22;23135;51.078;12.108;2023-08-07T13:05:07;18.80;99.90
37242;DHT22;23135;51.078;12.108;2023-08-07T13:07:34;19.00;99.90
37242;DHT22;23135;51.078;12.108;2023-08-07T13:10:00;18.90;99.90
37242;DHT22;23135;51.078;12.108;2023-08-07T13:12:25;18.80;99.90
37242;DHT22;23135;51.078;12.108;2023-08-07T13:14:51;18.70;99.90
37242;DHT22;23135;51.078;12.108;2023-08-07T13:17:16;18.50;99.90
37242;DHT22;23135;51.078;12.108;2023-08-07T13:19:42;18.10;99.90
37242;DHT22;23135;51.078;12.108;2023-08-07T13:22:08;17.90;99.90
37242;DHT22;23135;51.078;12.108;2023-08-07T13:24:33;17.90;99.90
37242;DHT22;23135;51.078;12.108;2023-08-07T13:26:59;17.90;99.90
37242;DHT22;23135;51.078;12.108;2023-08-07T13:29:25;17.90;99.90
37242;DHT22;23135;51.078;12.108;2023-08-07T13:31:55;17.80;99.90
37242;DHT22;23135;51.078;12.108;2023-08-07T13:34:20;18.00;99.90
37242;DHT22;23135;51.078;12.108;2023-08-07T13:36:46;18.20;99.90
37242;DHT22;23135;51.078;12.108;2023-08-07T13:39:11;18.10;99.90
37242;DHT22;23135;51.078;12.108;2023-08-07T13:41:37;17.80;99.90
37242;DHT22;23135;51.078;12.108;2023-08-07T13:44:03;17.30;99.90
37242;DHT22;23135;51.078;12.108;2023-08-07T13:46:28;16.50;99.90
37242;DHT22;23135;51.078;12.108;2023-08-07T13:48:55;16.10;99.90
37242;DHT22;23135;51.078;12.108;2023-08-07T13:51:21;15.90;99.90
37242;DHT22;23135;51.078;12.108;2023-08-07T13:53:46;15.90;99.90
37242;DHT22;23135;51.078;12.108;2023-08-07T13:56:12;15.80;99.90
37242;DHT22;23135;51.078;12.108;2023-08-07T13:58:41;15.70;99.90
37242;DHT22;23135;51.078;12.108;2023-08-07T14:01:08;15.60;99.90
37242;DHT22;23135;51.078;12.108;2023-08-07T14:03:34;15.50;99.90
37242;DHT22;23135;51.078;12.108;2023-08-07T14:06:00;15.50;99.90
37242;DHT22;23135;51.078;12.108;2023-08-07T14:08:26;15.40;99.90
37242;DHT22;23135;51.078;12.108;2023-08-07T14:10:52;15.40;99.90
37242;DHT22;23135;51.078;12.108;2023-08-07T14:13:17;15.50;99.90
37242;DHT22;23135;51.078;12.108;2023-08-07T14:15:43;15.50;99.90
37242;DHT22;23135;51.078;12.108;2023-08-07T14:18:09;15.60;99.90
37242;DHT22;23135;51.078;12.108;2023-08-07T14:20:36;15.60;99.90
37242;DHT22;23135;51.078;12.108;2023-08-07T14:23:02;15.70;99.90
37242;DHT22;23135;51.078;12.108;2023-08-07T14:25:27;15.70;99.90
37242;DHT22;23135;51.078;12.108;2023-08-07T14:27:53;16.00;99.90
37242;DHT22;23135;51.078;12.108;2023-08-07T14:30:19;16.70;99.90
37242;DHT22;23135;51.078;12.108;2023-08-07T14:32:45;17.10;99.90
37242;DHT22;23135;51.078;12.108;2023-08-07T14:35:12;17.40;99.90
37242;DHT22;23135;51.078;12.108;2023-08-07T14:37:39;17.70;99.90
37242;DHT22;23135;51.078;12.108;2023-08-07T14:40:05;17.50;99.90
37242;DHT22;23135;51.078;12.108;2023-08-07T14:42:31;17.30;99.90
37242;DHT22;23135;51.078;12.108;2023-08-07T14:44:56;17.20;99.90
37242;DHT22;23135;51.078;12.108;2023-08-07T14:47:22;17.00;99.90
37242;DHT22;23135;51.078;12.108;2023-08-07T14:49:47;16.90;99.90
37242;DHT22;23135;51.078;12.108;2023-08-07T14:52:13;16.60;99.90
37242;DHT22;23135;51.078;12.108;2023-08-07T14:54:39;16.20;99.90
37242;DHT22;23135;51.078;12.108;2023-08-07T14:57:04;15.70;99.90
37242;DHT22;23135;51.078;12.108;2023-08-07T14:59:30;15.40;99.90
37242;DHT22;23135;51.078;12.108;2023-08-07T15:01:55;15.30;99.90
37242;DHT22;23135;51.078;12.108;2023-08-07T15:04:21;15.20;99.90
37242;DHT22;23135;51.078;12.108;2023-08-07T15:06:47;14.90;99.90
37242;DHT22;23135;51.078;12.108;2023-08-07T15:09:14;14.70;99.90
37242;DHT22;23135;51.078;12.108;2023-08-07T15:11:40;14.60;99.90
37242;DHT22;23135;51.078;12.108;2023-08-07T15:14:06;14.70;99.90
37242;DHT22;23135;51.078;12.108;2023-08-07T15:16:31;14.90;99.90
37242;DHT22;23135;51.078;12.108;2023-08-07T15:18:57;15.00;99.90
37242;DHT22;23135;51.078;12.108;2023-08-07T15:21:23;15.20;99.90
37242;DHT22;23135;51.078;12.108;2023-08-07T15:23:48;15.30;99.90